createdAt,value
2022-11-04T00:02:07.608Z,42.48
2022-11-04T00:07:29.418Z,42.60
2022-11-04T00:12:31.276Z,42.79
2022-11-04T00:17:33.080Z,42.87
2022-11-04T00:22:54.070Z,42.61
2022-11-04T00:28:23.078Z,42.59
2022-11-04T00:33:27.856Z,42.55
2022-11-04T00:38:29.688Z,42.81
2022-11-04T00:43:31.403Z,42.66
2022-11-04T00:48:33.260Z,42.59
2022-11-04T00:53:35.419Z,42.62
2022-11-04T00:58:37.423Z,42.58
2022-11-04T01:03:39.551Z,42.65
2022-11-04T01:08:41.397Z,42.85
2022-11-04T01:13:43.206Z,42.75
2022-11-04T01:18:44.822Z,42.53
2022-11-04T01:23:47.118Z,42.74
2022-11-04T01:28:49.618Z,42.75
2022-11-04T01:33:53.685Z,42.91
2022-11-04T01:38:57.073Z,42.67
2022-11-04T01:44:04.448Z,42.55
2022-11-04T01:49:32.897Z,42.45
2022-11-04T01:54:36.175Z,42.57
2022-11-04T01:59:41.089Z,42.74
2022-11-04T02:04:43.690Z,42.58
2022-11-04T02:09:45.770Z,42.46
2022-11-04T02:14:50.105Z,42.36
2022-11-04T02:20:27.879Z,42.71
2022-11-04T02:26:07.843Z,42.70
2022-11-04T02:31:28.489Z,42.92
2022-11-04T02:36:51.724Z,42.51
2022-11-04T02:42:01.611Z,42.38
2022-11-04T02:47:17.457Z,42.50
2022-11-04T02:52:50.294Z,42.79
2022-11-04T02:57:56.598Z,42.78
2022-11-04T03:03:07.414Z,42.47
2022-11-04T03:08:16.239Z,42.75
2022-11-04T03:13:25.641Z,42.43
2022-11-04T03:18:57.014Z,42.42
2022-11-04T03:23:58.761Z,42.49
2022-11-04T03:29:36.519Z,42.70
2022-11-04T03:34:38.501Z,42.56
2022-11-04T03:39:40.692Z,42.68
2022-11-04T03:44:44.280Z,42.40
2022-11-04T03:49:48.268Z,42.31
2022-11-04T03:54:49.947Z,42.51
2022-11-04T04:00:03.817Z,42.44
2022-11-04T04:05:22.012Z,42.69
2022-11-04T04:10:59.890Z,42.30
2022-11-04T04:16:08.929Z,42.48
2022-11-04T04:21:16.371Z,42.33
2022-11-04T04:26:39.986Z,42.49
2022-11-04T04:31:50.708Z,42.50
2022-11-04T04:36:54.512Z,42.61
2022-11-04T04:42:15.000Z,42.67
2022-11-04T04:47:21.327Z,42.64
2022-11-04T04:52:26.148Z,43.02
2022-11-04T04:57:27.831Z,42.88
2022-11-04T05:02:29.568Z,42.46
2022-11-04T05:07:31.308Z,42.57
2022-11-04T05:12:54.142Z,42.57
2022-11-04T05:17:57.505Z,42.65
2022-11-04T05:22:59.365Z,42.48
2022-11-04T05:28:02.301Z,42.57
2022-11-04T05:33:05.206Z,42.73
2022-11-04T05:38:07.171Z,42.67
2022-11-04T05:43:09.817Z,42.92
2022-11-04T05:48:11.877Z,42.89
2022-11-04T05:53:13.747Z,42.73
2022-11-04T05:58:15.546Z,42.63
2022-11-04T06:03:17.434Z,42.47
2022-11-04T06:08:19.355Z,42.58
2022-11-04T06:13:21.228Z,42.61
2022-11-04T06:18:22.971Z,42.59
2022-11-04T06:23:24.867Z,42.56
2022-11-04T06:28:26.719Z,42.51
2022-11-04T06:33:35.405Z,42.75
2022-11-04T06:38:38.690Z,42.61
2022-11-04T06:43:40.788Z,42.51
2022-11-04T06:48:42.875Z,42.48
2022-11-04T06:53:44.691Z,42.81
2022-11-04T06:58:50.156Z,42.39
2022-11-04T07:03:53.351Z,42.63
2022-11-04T07:08:58.702Z,42.93
2022-11-04T07:14:00.566Z,42.86
2022-11-04T07:19:02.263Z,42.68
2022-11-04T07:24:04.079Z,42.64
2022-11-04T07:29:06.912Z,42.67
2022-11-04T07:34:08.734Z,42.78
2022-11-04T07:39:10.670Z,42.74
2022-11-04T07:44:13.246Z,42.11
2022-11-04T07:49:15.560Z,41.27
2022-11-04T07:54:17.381Z,40.75
2022-11-04T07:59:19.345Z,40.63
2022-11-04T08:04:21.278Z,40.11
2022-11-04T08:09:23.566Z,39.64
2022-11-04T08:14:25.649Z,39.40
2022-11-04T08:19:27.826Z,39.16
2022-11-04T08:24:29.587Z,39.23
2022-11-04T08:29:31.474Z,41.12
2022-11-04T08:34:33.373Z,41.50
2022-11-04T08:39:35.299Z,41.25
2022-11-04T08:44:39.371Z,41.31
2022-11-04T08:49:42.358Z,41.11
2022-11-04T08:54:45.276Z,41.13
2022-11-04T08:59:47.198Z,40.99
2022-11-04T09:04:49.072Z,40.89
2022-11-04T09:09:50.860Z,41.06
2022-11-04T09:14:53.078Z,40.95
2022-11-04T09:19:54.870Z,40.64
2022-11-04T09:24:56.732Z,40.75
2022-11-04T09:29:58.557Z,40.75
2022-11-04T09:35:00.291Z,41.10
2022-11-04T09:40:02.036Z,41.25
2022-11-04T09:45:22.922Z,41.16
2022-11-04T09:50:29.553Z,41.17
2022-11-04T09:55:55.738Z,41.54
2022-11-04T10:01:20.393Z,41.30
2022-11-04T10:06:30.725Z,41.48
2022-11-04T10:11:42.496Z,41.37
2022-11-04T10:17:02.277Z,42.19
2022-11-04T10:22:32.350Z,41.62
2022-11-04T10:27:38.572Z,41.44
2022-11-04T10:32:53.412Z,41.89
2022-11-04T10:37:56.247Z,41.43
2022-11-04T10:43:00.972Z,41.68
2022-11-04T10:48:09.719Z,41.40
2022-11-04T10:53:44.341Z,41.18
2022-11-04T10:58:47.873Z,41.67
2022-11-04T11:03:49.928Z,41.53
2022-11-04T11:08:54.444Z,41.37
2022-11-04T11:13:56.269Z,42.75
2022-11-04T11:19:17.719Z,42.28
2022-11-04T11:24:26.187Z,42.24
2022-11-04T11:29:42.386Z,42.18
2022-11-04T11:34:47.331Z,41.99
2022-11-04T11:39:49.127Z,42.21
2022-11-04T11:44:56.706Z,41.95
2022-11-04T11:50:34.596Z,42.19
2022-11-04T11:55:37.583Z,41.90
2022-11-04T12:01:03.708Z,42.04
2022-11-04T12:06:22.587Z,42.05
2022-11-04T12:11:44.517Z,41.96
2022-11-04T12:16:48.860Z,41.99
2022-11-04T12:22:02.209Z,42.37
2022-11-04T12:27:13.008Z,42.28
2022-11-04T12:32:38.755Z,42.44
2022-11-04T12:38:17.469Z,42.55
2022-11-04T12:43:31.959Z,42.70
2022-11-04T12:48:57.068Z,42.56
2022-11-04T12:54:19.210Z,42.92
2022-11-04T12:59:46.809Z,42.61
2022-11-04T13:04:59.991Z,42.65
2022-11-04T13:10:21.531Z,42.62
2022-11-04T13:15:29.107Z,42.62
2022-11-04T13:20:43.690Z,42.68
2022-11-04T13:25:48.269Z,43.21
2022-11-04T13:31:12.541Z,43.02
2022-11-04T13:36:38.197Z,43.55
2022-11-04T13:42:11.077Z,44.15
2022-11-04T13:47:38.723Z,43.67
2022-11-04T13:52:52.487Z,43.72
2022-11-04T13:58:00.540Z,44.62
2022-11-04T14:03:27.357Z,43.69
2022-11-04T14:08:29.568Z,43.48
2022-11-04T14:13:32.711Z,43.71
2022-11-04T14:18:36.743Z,44.30
2022-11-04T14:23:40.429Z,44.48
2022-11-04T14:28:45.708Z,44.09
2022-11-04T14:33:55.876Z,44.40
2022-11-04T14:39:12.883Z,44.58
2022-11-04T14:44:40.713Z,44.46
2022-11-04T14:50:07.716Z,44.06
2022-11-04T14:55:12.145Z,43.93
2022-11-04T15:00:23.164Z,43.89
2022-11-04T15:05:28.156Z,44.00
2022-11-04T15:10:29.987Z,43.84
2022-11-04T15:15:34.246Z,43.68
2022-11-04T15:20:46.708Z,43.73
2022-11-04T15:25:49.766Z,43.60
2022-11-04T15:31:20.943Z,42.98
2022-11-04T15:36:32.130Z,42.99
2022-11-04T15:41:53.473Z,43.22
2022-11-04T15:46:58.599Z,43.49
2022-11-04T15:52:05.271Z,43.43
2022-11-04T15:57:21.416Z,43.33
2022-11-04T16:02:32.158Z,43.32
2022-11-04T16:07:54.217Z,43.51
2022-11-04T16:13:15.006Z,43.51
2022-11-04T16:18:30.526Z,43.28
2022-11-04T16:23:35.479Z,44.19
2022-11-04T16:28:39.645Z,43.97
2022-11-04T16:33:41.434Z,44.19
2022-11-04T16:38:43.449Z,43.91
2022-11-04T16:43:45.335Z,43.63
2022-11-04T16:48:47.212Z,43.65
2022-11-04T16:53:50.964Z,43.31
2022-11-04T16:58:53.279Z,43.69
2022-11-04T17:03:55.260Z,43.61
2022-11-04T17:08:57.233Z,43.54
2022-11-04T17:13:59.028Z,43.75
2022-11-04T17:19:00.968Z,43.35
2022-11-04T17:24:02.884Z,43.71
2022-11-04T17:29:04.860Z,43.60
2022-11-04T17:34:06.655Z,43.37
2022-11-04T17:39:08.647Z,43.68
2022-11-04T17:44:10.491Z,43.28
2022-11-04T17:49:14.772Z,43.54
2022-11-04T17:54:17.146Z,43.57
2022-11-04T17:59:18.958Z,43.75
2022-11-04T18:04:22.938Z,43.61
2022-11-04T18:09:25.224Z,43.47
2022-11-04T18:14:27.207Z,43.79
2022-11-04T18:19:29.187Z,43.44
2022-11-04T18:24:31.935Z,43.57
2022-11-04T18:29:33.747Z,43.65
2022-11-04T18:34:35.840Z,43.53
2022-11-04T18:39:38.633Z,43.23
2022-11-04T18:44:40.836Z,43.69
2022-11-04T18:49:42.752Z,43.35
2022-11-04T18:54:44.733Z,43.63
2022-11-04T18:59:47.281Z,43.42
2022-11-04T19:04:50.208Z,43.37
2022-11-04T19:09:51.992Z,43.30
2022-11-04T19:14:53.723Z,43.40
2022-11-04T19:19:56.144Z,43.04
2022-11-04T19:24:57.956Z,43.50
2022-11-04T19:29:59.651Z,43.36
2022-11-04T19:35:01.507Z,43.14
2022-11-04T19:40:05.062Z,43.13
2022-11-04T19:45:07.832Z,43.14
2022-11-04T19:50:10.410Z,43.07
2022-11-04T19:55:12.341Z,43.49
2022-11-04T20:00:15.194Z,43.26
2022-11-04T20:05:17.207Z,43.24
2022-11-04T20:10:19.183Z,42.94
2022-11-04T20:15:21.169Z,43.17
2022-11-04T20:20:22.897Z,43.12
2022-11-04T20:25:24.608Z,42.99
2022-11-04T20:30:26.442Z,42.93
2022-11-04T20:35:28.406Z,42.76
2022-11-04T20:40:30.294Z,42.76
2022-11-04T20:45:32.181Z,42.71
2022-11-04T20:50:35.778Z,43.03
2022-11-04T20:55:39.823Z,42.98
2022-11-04T21:00:41.528Z,43.13
2022-11-04T21:05:44.228Z,42.77
2022-11-04T21:10:50.040Z,43.03
2022-11-04T21:16:01.684Z,43.10
2022-11-04T21:21:05.815Z,42.82
2022-11-04T21:26:09.373Z,42.79
2022-11-04T21:31:12.434Z,42.80
2022-11-04T21:36:14.551Z,42.67
2022-11-04T21:41:21.288Z,42.81
2022-11-04T21:46:23.776Z,42.73
2022-11-04T21:51:29.210Z,42.65
2022-11-04T21:56:33.215Z,42.90
2022-11-04T22:01:35.092Z,43.07
2022-11-04T22:06:36.999Z,42.85
2022-11-04T22:11:39.985Z,42.70
2022-11-04T22:16:41.729Z,42.75
2022-11-04T22:21:45.198Z,42.69
2022-11-04T22:26:47.983Z,42.49
2022-11-04T22:31:49.849Z,42.74
2022-11-04T22:36:51.727Z,42.67
2022-11-04T22:41:53.536Z,42.42
2022-11-04T22:46:55.386Z,42.42
2022-11-04T22:51:57.724Z,42.46
2022-11-04T22:56:59.488Z,42.25
2022-11-04T23:02:01.317Z,42.25
2022-11-04T23:07:03.138Z,42.54
2022-11-04T23:12:23.967Z,42.50
2022-11-04T23:17:44.634Z,42.42
2022-11-04T23:23:05.209Z,42.39
2022-11-04T23:28:36.255Z,42.39
2022-11-04T23:33:56.677Z,42.79
2022-11-04T23:38:58.327Z,42.58
2022-11-04T23:44:00.214Z,42.43
2022-11-04T23:49:07.808Z,42.47
2022-11-04T23:54:28.257Z,42.22
2022-11-04T23:59:48.568Z,42.56
